Terminal Aerodrome Forecast
Issued by NWS Wichita, KS

Home | Current Version | Previous Version | Text Only | Print | Product List | Glossary On
Versions: 1 2 3 4 5 6 7 8 9 10 11 12 13 14 15 16
000
FTUS43 KICT 061120
TAFICT
TAF
KICT 061120Z 0612/0712 17012KT P6SM BKN250
     FM061500 19015G23KT P6SM BKN250
     FM062100 23013G21KT P6SM VCTS BKN060CB
      TEMPO 0623/0703 VRB20G35KT 3SM +TSRA OVC035CB
     FM070300 01012KT 3SM +TSRA OVC040CB
     FM070700 01014KT 6SM -SHRA VCTS OVC035CB=

USA.gov is the U.S. government's official web portal to all federal, state and local government web resources and services.